Terminal Aerodrome Forecast
Issued by NWS Charleston, WV

Current Version | Previous Version | Graphics & Text | Print | Product List | Glossary On
Versions: 1 2 3 4 5 6 7 8 9 10 11 12 13 14 15 16 17 18 19 20 21 22 23
000
FTUS41 KRLX 180902 AAA
TAFHTS
TAF AMD
KHTS 180902Z 1809/1906 27006KT P6SM BKN025 OVC035
     FM181000 27006KT 6SM -DZ OVC015
     FM181400 28006KT P6SM OVC015
     FM181800 27006KT P6SM BKN020
     FM182200 27004KT P6SM SCT020=

USA.gov is the U.S. government's official web portal to all federal, state and local government web resources and services.